Ryoho Maru No.2 — JD2964 — position and weather

sailwx.info

Track history (hours):
 
Tides and Currents Weather Stations Pressure Air Temp Water Temp Dewpoint Dewpoint Depression Visibility Wind Speed Wind Dir Waves Ship Positions

Ryoho Maru No.2

Last reported at 2014-Sep-11 22:13 UTC. Time now 2014-Sep-17 23:38 UTC.
Position N 35°49' E 140°56'.

Length 57 m; draft 4 m.

Type: Tanker. MMSI: 431001062.

Date/timePositionNaut miles runAvg speedWind from/ knotsBaromVisibWave heightAir tempDewpointWater temp
2014-Sep-11 22:13N 35°49' E 140°56'6 9.6
2014-Sep-11 21:33N 35°43' E 140°55'9 8.6
2014-Sep-11 20:33N 35°35' E 140°49'10 9.7
2014-Sep-11 19:33N 35°28' E 140°42'10 9.9
2014-Sep-11 18:33N 35°20' E 140°34'11 9.8
2014-Sep-11 17:24N 35°10' E 140°27'1111.6
2014-Sep-11 16:29N 35°04' E 140°17'1111.5
2014-Sep-11 15:31N 34°58' E 140°05'17 8.4
2014-Sep-11 13:32N 34°56' E 139°45'9 9.5
2014-Sep-11 12:33N 35°06' E 139°44'1010.0
2014-Sep-11 11:33N 35°16' E 139°46'9 9.5
2014-Sep-11 10:33N 35°25' E 139°44'10 9.8
2014-Sep-11 09:34N 35°30' E 139°54'6 5.2
2014-Sep-11 08:29N 35°28' E 140°01'0 0.0
2014-Sep-11 07:29N 35°28' E 140°01'0 0.0
2014-Sep-11 06:29N 35°28' E 140°01'0 0.0
2014-Sep-11 05:29N 35°28' E 140°01'0 0.0
2014-Sep-11 04:29N 35°28' E 140°01'4 3.9
2014-Sep-11 03:34N 35°30' E 139°57'10 9.5
2014-Sep-11 02:33N 35°32' E 139°46'0 0.3
2014-Sep-11 01:31N 35°32' E 139°45'0 0.0
2014-Sep-11 00:28N 35°32' E 139°45'1 1.4
2014-Sep-10 23:33N 35°31' E 139°46'1 1.3
2014-Sep-10 22:33N 35°29' E 139°47'0 0.1
2014-Sep-10 21:33N 35°29' E 139°47'0 0.0
2014-Sep-10 20:33N 35°29' E 139°47'0 0.0
2014-Sep-10 19:30N 35°29' E 139°47'0 0.0
2014-Sep-10 18:27N 35°29' E 139°47'0 0.0
2014-Sep-10 17:33N 35°29' E 139°47'0 0.0
2014-Sep-10 16:33N 35°29' E 139°47'0 0.0
2014-Sep-10 15:30N 35°29' E 139°47'0 0.0
2014-Sep-10 14:33N 35°29' E 139°47'0 0.0
2014-Sep-10 13:33N 35°29' E 139°47'0 0.0
2014-Sep-10 12:27N 35°29' E 139°47'0 0.0
2014-Sep-10 11:33N 35°29' E 139°47'0 0.0
2014-Sep-10 10:33N 35°29' E 139°47'0 0.0
2014-Sep-10 09:33N 35°29' E 139°47'0 0.0
2014-Sep-10 08:33N 35°29' E 139°47'0 0.0
2014-Sep-10 07:33N 35°29' E 139°47'0 0.0
2014-Sep-10 06:30N 35°29' E 139°47'0 0.1
2014-Sep-10 05:33N 35°29' E 139°47'0 0.0
2014-Sep-10 04:33N 35°29' E 139°47'0 0.1
2014-Sep-10 03:30N 35°29' E 139°47'0 0.1
2014-Sep-10 02:33N 35°29' E 139°47'0 0.0
2014-Sep-10 01:33N 35°29' E 139°47'0 0.0
2014-Sep-10 00:33N 35°29' E 139°47'0 0.0
2014-Sep-09 23:33N 35°29' E 139°47'0 0.0
2014-Sep-09 22:33N 35°29' E 139°47'0 0.0
2014-Sep-09 21:33N 35°29' E 139°47'0 0.1
2014-Sep-09 20:33N 35°29' E 139°47'0 0.0
2014-Sep-09 19:33N 35°29' E 139°47'0 0.0
2014-Sep-09 18:30N 35°29' E 139°47'0 0.0
2014-Sep-09 17:33N 35°29' E 139°47'0 0.0
2014-Sep-09 16:33N 35°29' E 139°47'0 0.0
2014-Sep-09 15:33N 35°29' E 139°47'0 0.0
2014-Sep-09 14:33N 35°29' E 139°47'0 0.1
2014-Sep-09 13:33N 35°29' E 139°47'0 0.0
2014-Sep-09 12:33N 35°29' E 139°47'0 0.0
2014-Sep-09 11:33N 35°29' E 139°47'0 0.0
2014-Sep-09 10:30N 35°29' E 139°47'0 0.0
2014-Sep-09 09:33N 35°29' E 139°47'0 0.0
2014-Sep-09 08:30N 35°29' E 139°47'0 0.0
2014-Sep-09 07:33N 35°29' E 139°47'0 0.0
2014-Sep-09 06:33N 35°29' E 139°47'0 0.0
2014-Sep-09 05:33N 35°29' E 139°47'0 0.0
2014-Sep-09 04:33N 35°29' E 139°47'0 0.1
2014-Sep-09 03:33N 35°29' E 139°47'0 0.0
2014-Sep-09 02:33N 35°29' E 139°47'0 0.0
2014-Sep-09 01:33N 35°29' E 139°47'0 0.0
2014-Sep-09 00:33N 35°29' E 139°47'0 0.0
2014-Sep-08 23:33N 35°29' E 139°47'0 0.0
2014-Sep-08 22:33N 35°29' E 139°47'0 0.0
2014-Sep-08 21:30N 35°29' E 139°47'0 0.0
2014-Sep-08 20:33N 35°29' E 139°47'0 0.0
2014-Sep-08 19:33N 35°29' E 139°47'0 0.0
2014-Sep-08 18:33N 35°29' E 139°47'0 0.0
2014-Sep-08 17:33N 35°29' E 139°47'0 0.0
2014-Sep-08 16:33N 35°29' E 139°47'0 0.0
2014-Sep-08 15:33N 35°29' E 139°47'0 0.1
2014-Sep-08 14:33N 35°29' E 139°47'0 0.0
2014-Sep-08 13:30N 35°29' E 139°47'0 0.0
2014-Sep-08 12:33N 35°29' E 139°47'0 0.0
2014-Sep-08 11:33N 35°29' E 139°47'9 9.5
2014-Sep-08 10:33N 35°20' E 139°44'9 9.3
2014-Sep-08 09:33N 35°11' E 139°47'1111.4
2014-Sep-08 08:33N 34°60' E 139°44'9 8.8
2014-Sep-08 07:29N 34°53' E 139°52'9 9.2
2014-Sep-08 06:32N 34°55' E 140°02'1010.1
2014-Sep-08 05:33N 35°01' E 140°12'1410.3
2014-Sep-08 04:09N 35°10' E 140°26'711.1
2014-Sep-08 03:33N 35°16' E 140°30'1111.1
2014-Sep-08 02:33N 35°25' E 140°39'1111.3
2014-Sep-08 01:32N 35°34' E 140°47'1311.0
2014-Sep-08 00:22N 35°45' E 140°55'1111.5
2014-Sep-07 23:25N 35°56' E 140°58'1111.5
2014-Sep-07 22:26N 36°07' E 141°00'2612.5
2014-Sep-07 20:22N 36°32' E 141°07'1012.2
2014-Sep-07 19:32N 36°42' E 141°10'  
Track history (hours):
 
Tides and Currents Weather Stations Pressure Air Temp Water Temp Dewpoint Dewpoint Depression Visibility Wind Speed Wind Dir Waves Ship Positions

Ryoho Maru No.2

Last reported at 2014-Sep-11 22:13 UTC. Time now 2014-Sep-17 23:38 UTC.
Position N 35°49' E 140°56'.

Length 57 m; draft 4 m.

Type: Tanker. MMSI: 431001062.

Date/timePositionNaut miles runAvg speedWind from/ knotsBaromVisibWave heightAir tempDewpointWater temp
2014-Sep-11 22:13N 35°49' E 140°56'6 9.6
2014-Sep-11 21:33N 35°43' E 140°55'9 8.6
2014-Sep-11 20:33N 35°35' E 140°49'10 9.7
2014-Sep-11 19:33N 35°28' E 140°42'10 9.9
2014-Sep-11 18:33N 35°20' E 140°34'11 9.8
2014-Sep-11 17:24N 35°10' E 140°27'1111.6
2014-Sep-11 16:29N 35°04' E 140°17'1111.5
2014-Sep-11 15:31N 34°58' E 140°05'17 8.4
2014-Sep-11 13:32N 34°56' E 139°45'9 9.5
2014-Sep-11 12:33N 35°06' E 139°44'1010.0
2014-Sep-11 11:33N 35°16' E 139°46'9 9.5
2014-Sep-11 10:33N 35°25' E 139°44'10 9.8
2014-Sep-11 09:34N 35°30' E 139°54'6 5.2
2014-Sep-11 08:29N 35°28' E 140°01'0 0.0
2014-Sep-11 07:29N 35°28' E 140°01'0 0.0
2014-Sep-11 06:29N 35°28' E 140°01'0 0.0
2014-Sep-11 05:29N 35°28' E 140°01'0 0.0
2014-Sep-11 04:29N 35°28' E 140°01'4 3.9
2014-Sep-11 03:34N 35°30' E 139°57'10 9.5
2014-Sep-11 02:33N 35°32' E 139°46'0 0.3
2014-Sep-11 01:31N 35°32' E 139°45'0 0.0
2014-Sep-11 00:28N 35°32' E 139°45'1 1.4
2014-Sep-10 23:33N 35°31' E 139°46'1 1.3
2014-Sep-10 22:33N 35°29' E 139°47'0 0.1
2014-Sep-10 21:33N 35°29' E 139°47'0 0.0
2014-Sep-10 20:33N 35°29' E 139°47'0 0.0
2014-Sep-10 19:30N 35°29' E 139°47'0 0.0
2014-Sep-10 18:27N 35°29' E 139°47'0 0.0
2014-Sep-10 17:33N 35°29' E 139°47'0 0.0
2014-Sep-10 16:33N 35°29' E 139°47'0 0.0
2014-Sep-10 15:30N 35°29' E 139°47'0 0.0
2014-Sep-10 14:33N 35°29' E 139°47'0 0.0
2014-Sep-10 13:33N 35°29' E 139°47'0 0.0
2014-Sep-10 12:27N 35°29' E 139°47'0 0.0
2014-Sep-10 11:33N 35°29' E 139°47'0 0.0
2014-Sep-10 10:33N 35°29' E 139°47'0 0.0
2014-Sep-10 09:33N 35°29' E 139°47'0 0.0
2014-Sep-10 08:33N 35°29' E 139°47'0 0.0
2014-Sep-10 07:33N 35°29' E 139°47'0 0.0
2014-Sep-10 06:30N 35°29' E 139°47'0 0.1
2014-Sep-10 05:33N 35°29' E 139°47'0 0.0
2014-Sep-10 04:33N 35°29' E 139°47'0 0.1
2014-Sep-10 03:30N 35°29' E 139°47'0 0.1
2014-Sep-10 02:33N 35°29' E 139°47'0 0.0
2014-Sep-10 01:33N 35°29' E 139°47'0 0.0
2014-Sep-10 00:33N 35°29' E 139°47'0 0.0
2014-Sep-09 23:33N 35°29' E 139°47'0 0.0
2014-Sep-09 22:33N 35°29' E 139°47'0 0.0
2014-Sep-09 21:33N 35°29' E 139°47'0 0.1
2014-Sep-09 20:33N 35°29' E 139°47'0 0.0
2014-Sep-09 19:33N 35°29' E 139°47'0 0.0
2014-Sep-09 18:30N 35°29' E 139°47'0 0.0
2014-Sep-09 17:33N 35°29' E 139°47'0 0.0
2014-Sep-09 16:33N 35°29' E 139°47'0 0.0
2014-Sep-09 15:33N 35°29' E 139°47'0 0.0
2014-Sep-09 14:33N 35°29' E 139°47'0 0.1
2014-Sep-09 13:33N 35°29' E 139°47'0 0.0
2014-Sep-09 12:33N 35°29' E 139°47'0 0.0
2014-Sep-09 11:33N 35°29' E 139°47'0 0.0
2014-Sep-09 10:30N 35°29' E 139°47'0 0.0
2014-Sep-09 09:33N 35°29' E 139°47'0 0.0
2014-Sep-09 08:30N 35°29' E 139°47'0 0.0
2014-Sep-09 07:33N 35°29' E 139°47'0 0.0
2014-Sep-09 06:33N 35°29' E 139°47'0 0.0
2014-Sep-09 05:33N 35°29' E 139°47'0 0.0
2014-Sep-09 04:33N 35°29' E 139°47'0 0.1
2014-Sep-09 03:33N 35°29' E 139°47'0 0.0
2014-Sep-09 02:33N 35°29' E 139°47'0 0.0
2014-Sep-09 01:33N 35°29' E 139°47'0 0.0
2014-Sep-09 00:33N 35°29' E 139°47'0 0.0
2014-Sep-08 23:33N 35°29' E 139°47'0 0.0
2014-Sep-08 22:33N 35°29' E 139°47'0 0.0
2014-Sep-08 21:30N 35°29' E 139°47'0 0.0
2014-Sep-08 20:33N 35°29' E 139°47'0 0.0
2014-Sep-08 19:33N 35°29' E 139°47'0 0.0
2014-Sep-08 18:33N 35°29' E 139°47'0 0.0
2014-Sep-08 17:33N 35°29' E 139°47'0 0.0
2014-Sep-08 16:33N 35°29' E 139°47'0 0.0
2014-Sep-08 15:33N 35°29' E 139°47'0 0.1
2014-Sep-08 14:33N 35°29' E 139°47'0 0.0
2014-Sep-08 13:30N 35°29' E 139°47'0 0.0
2014-Sep-08 12:33N 35°29' E 139°47'0 0.0
2014-Sep-08 11:33N 35°29' E 139°47'9 9.5
2014-Sep-08 10:33N 35°20' E 139°44'9 9.3
2014-Sep-08 09:33N 35°11' E 139°47'1111.4
2014-Sep-08 08:33N 34°60' E 139°44'9 8.8
2014-Sep-08 07:29N 34°53' E 139°52'9 9.2
2014-Sep-08 06:32N 34°55' E 140°02'1010.1
2014-Sep-08 05:33N 35°01' E 140°12'1410.3
2014-Sep-08 04:09N 35°10' E 140°26'711.1
2014-Sep-08 03:33N 35°16' E 140°30'1111.1
2014-Sep-08 02:33N 35°25' E 140°39'1111.3
2014-Sep-08 01:32N 35°34' E 140°47'1311.0
2014-Sep-08 00:22N 35°45' E 140°55'1111.5
2014-Sep-07 23:25N 35°56' E 140°58'1111.5
2014-Sep-07 22:26N 36°07' E 141°00'2612.5
2014-Sep-07 20:22N 36°32' E 141°07'1012.2
2014-Sep-07 19:32N 36°42' E 141°10'  

Dump ship's entire track history